createdAt,value
2022-11-21T00:05:42.464Z,266.70
2022-11-21T00:08:44.960Z,246.50
2022-11-21T00:11:46.671Z,251.20
2022-11-21T00:14:48.463Z,255.00
2022-11-21T00:17:50.613Z,257.60
2022-11-21T00:20:52.451Z,259.70
2022-11-21T00:23:54.201Z,250.30
2022-11-21T00:26:56.360Z,210.80
2022-11-21T00:29:58.008Z,237.90
2022-11-21T00:32:59.776Z,228.00
2022-11-21T00:36:09.015Z,241.80
2022-11-21T00:39:10.827Z,224.40
2022-11-21T00:42:15.644Z,228.50
2022-11-21T00:45:22.703Z,203.80
2022-11-21T00:48:26.028Z,211.90
2022-11-21T00:51:30.878Z,203.40
2022-11-21T00:54:32.517Z,194.70
2022-11-21T00:57:37.263Z,197.30
2022-11-21T01:00:39.000Z,189.30
2022-11-21T01:06:42.612Z,202.30
2022-11-21T01:09:44.242Z,203.10
2022-11-21T01:12:46.156Z,209.30
2022-11-21T01:18:49.757Z,189.70
2022-11-21T01:24:53.137Z,188.70
2022-11-21T01:30:56.566Z,210.70
2022-11-21T01:40:04.028Z,186.00
2022-11-21T01:43:14.813Z,176.20
2022-11-21T01:46:21.570Z,172.50
2022-11-21T01:49:31.251Z,184.60
2022-11-21T01:52:33.140Z,197.90
2022-11-21T01:55:35.335Z,198.70
2022-11-21T02:01:39.284Z,191.30
2022-11-21T02:04:42.677Z,195.90
2022-11-21T02:07:46.364Z,181.50
2022-11-21T02:10:56.207Z,185.70
2022-11-21T02:13:58.043Z,186.40
2022-11-21T02:20:05.910Z,180.10
2022-11-21T02:23:21.003Z,190.60
2022-11-21T02:26:22.997Z,191.80
2022-11-21T02:29:24.814Z,194.60
2022-11-21T02:32:34.341Z,189.10
2022-11-21T02:35:36.837Z,187.70
2022-11-21T02:38:39.028Z,186.30
2022-11-21T02:41:49.038Z,192.00
2022-11-21T02:45:21.664Z,183.60
2022-11-21T02:48:23.472Z,189.00
2022-11-21T02:51:25.399Z,190.20
2022-11-21T02:54:27.342Z,184.90
2022-11-21T02:57:29.233Z,194.30
2022-11-21T03:00:31.118Z,185.20
2022-11-21T03:06:34.489Z,177.50
2022-11-21T03:12:42.525Z,178.90
2022-11-21T03:15:44.117Z,191.40
2022-11-21T03:18:45.808Z,182.00
2022-11-21T03:21:47.566Z,172.40
2022-11-21T03:24:49.254Z,181.30
2022-11-21T03:27:52.527Z,181.10
2022-11-21T03:30:54.325Z,195.20
2022-11-21T03:33:56.205Z,191.90
2022-11-21T03:36:57.929Z,199.00
2022-11-21T03:39:59.708Z,178.20
2022-11-21T03:43:07.983Z,179.50
2022-11-21T03:46:09.630Z,208.20
2022-11-21T03:49:12.265Z,197.10
2022-11-21T03:52:13.877Z,174.90
2022-11-21T03:55:15.601Z,153.40
2022-11-21T03:58:17.191Z,160.60
2022-11-21T04:01:19.654Z,170.10
2022-11-21T04:04:21.353Z,169.50
2022-11-21T04:07:23.470Z,178.00
2022-11-21T04:10:25.232Z,177.00
2022-11-21T04:13:27.081Z,179.60
2022-11-21T04:16:28.813Z,182.30
2022-11-21T04:19:30.590Z,179.30
2022-11-21T04:22:32.236Z,190.40
2022-11-21T04:25:33.940Z,185.00
2022-11-21T04:28:35.667Z,183.90
2022-11-21T04:31:37.374Z,186.10
2022-11-21T04:34:39.803Z,180.40
2022-11-21T04:37:41.663Z,194.10
2022-11-21T04:46:47.481Z,198.20
2022-11-21T04:49:49.124Z,188.60
2022-11-21T04:52:56.037Z,169.70
2022-11-21T04:55:58.056Z,176.00
2022-11-21T04:58:59.629Z,167.90
2022-11-21T05:02:03.283Z,164.40
2022-11-21T05:05:05.416Z,168.50
2022-11-21T05:08:07.184Z,175.20
2022-11-21T05:11:27.680Z,195.30
2022-11-21T05:14:29.731Z,157.50
2022-11-21T05:17:31.824Z,155.40
2022-11-21T05:20:36.824Z,182.70
2022-11-21T05:23:38.788Z,214.10
2022-11-21T05:26:40.562Z,175.00
2022-11-21T05:29:42.310Z,170.30
2022-11-21T05:32:44.425Z,168.00
2022-11-21T05:35:46.569Z,167.50
2022-11-21T05:38:48.506Z,166.40
2022-11-21T05:44:51.919Z,142.70
2022-11-21T05:50:55.133Z,162.70
2022-11-21T05:53:57.056Z,163.00
2022-11-21T06:00:00.349Z,125.70
2022-11-21T06:03:20.964Z,153.20
2022-11-21T06:06:24.953Z,165.90
2022-11-21T06:09:26.811Z,191.40
2022-11-21T06:12:28.498Z,172.20
2022-11-21T06:15:30.228Z,180.60
2022-11-21T06:18:44.024Z,175.10
2022-11-21T06:21:45.696Z,169.70
2022-11-21T06:24:47.462Z,161.00
2022-11-21T06:27:49.198Z,154.40
2022-11-21T06:30:52.180Z,159.70
2022-11-21T06:33:56.580Z,176.60
2022-11-21T06:36:58.403Z,179.40
2022-11-21T06:40:00.374Z,170.60
2022-11-21T06:43:02.222Z,173.20
2022-11-21T06:46:04.414Z,172.70
2022-11-21T06:52:07.847Z,177.40
2022-11-21T06:55:10.547Z,177.80
2022-11-21T06:58:12.290Z,174.40
2022-11-21T07:01:13.943Z,164.70
2022-11-21T07:04:15.662Z,173.70
2022-11-21T07:07:17.457Z,204.80
2022-11-21T07:13:23.624Z,174.10
2022-11-21T07:16:26.616Z,196.60
2022-11-21T07:19:28.664Z,226.90
2022-11-21T07:22:30.728Z,207.20
2022-11-21T07:25:36.413Z,205.40
2022-11-21T07:28:38.649Z,186.20
2022-11-21T07:31:40.301Z,205.60
2022-11-21T07:34:42.080Z,205.40
2022-11-21T07:37:44.035Z,201.60
2022-11-21T07:40:46.574Z,208.50
2022-11-21T07:43:48.203Z,220.80
2022-11-21T07:46:53.757Z,226.60
2022-11-21T07:49:55.574Z,240.90
2022-11-21T07:56:09.910Z,206.90
2022-11-21T07:59:11.823Z,251.60
2022-11-21T08:02:19.589Z,196.40
2022-11-21T08:05:21.405Z,170.60
2022-11-21T08:17:29.871Z,168.60
2022-11-21T08:23:33.572Z,139.90
2022-11-21T08:29:36.716Z,170.90
2022-11-21T08:32:38.639Z,141.80
2022-11-21T08:38:41.895Z,109.10
2022-11-21T08:42:02.074Z,110.60
2022-11-21T08:45:05.552Z,98.00
2022-11-21T08:48:11.087Z,93.20
2022-11-21T08:51:12.739Z,87.00
2022-11-21T08:54:14.578Z,80.60
2022-11-21T08:57:16.196Z,76.00
2022-11-21T09:00:18.049Z,78.90
2022-11-21T09:03:23.582Z,78.10
2022-11-21T09:06:27.235Z,78.90
2022-11-21T09:09:28.876Z,68.30
2022-11-21T09:12:31.313Z,63.70
2022-11-21T09:15:51.796Z,63.20
2022-11-21T09:18:53.436Z,67.00
2022-11-21T09:21:55.178Z,62.80
2022-11-21T09:24:56.878Z,62.00
2022-11-21T09:28:06.223Z,58.80
2022-11-21T09:31:08.781Z,59.20
2022-11-21T09:34:10.611Z,57.10
2022-11-21T09:37:14.885Z,62.30
2022-11-21T09:40:16.930Z,59.30
2022-11-21T09:43:42.764Z,61.90
2022-11-21T09:46:47.745Z,58.60
2022-11-21T09:49:57.290Z,61.30
2022-11-21T09:53:07.003Z,62.40
2022-11-21T09:56:14.340Z,70.50
2022-11-21T09:59:21.714Z,59.00
2022-11-21T10:02:24.482Z,65.10
2022-11-21T10:05:52.296Z,54.10
2022-11-21T10:09:23.798Z,55.60
2022-11-21T10:12:37.299Z,51.20
2022-11-21T10:15:51.244Z,51.80
2022-11-21T10:19:10.365Z,51.20
2022-11-21T10:22:24.598Z,51.80
2022-11-21T10:25:30.907Z,53.20
2022-11-21T10:28:42.357Z,56.90
2022-11-21T10:31:44.005Z,55.20
2022-11-21T10:34:46.277Z,59.30
2022-11-21T10:38:00.286Z,60.00
2022-11-21T10:41:03.808Z,62.20
2022-11-21T10:44:24.222Z,59.70
2022-11-21T10:47:32.078Z,58.30
2022-11-21T10:50:47.150Z,63.30
2022-11-21T10:54:26.097Z,58.80
2022-11-21T10:57:31.408Z,60.80
2022-11-21T11:00:33.248Z,60.40
2022-11-21T11:03:35.042Z,58.30
2022-11-21T11:09:40.345Z,57.10
2022-11-21T11:13:02.171Z,65.20
2022-11-21T11:16:16.255Z,59.70
2022-11-21T11:19:27.108Z,60.10
2022-11-21T11:22:33.481Z,72.00
2022-11-21T11:31:46.407Z,63.30
2022-11-21T11:34:51.264Z,63.20
2022-11-21T11:38:00.747Z,63.40
2022-11-21T11:41:13.812Z,67.60
2022-11-21T11:44:54.941Z,57.70
2022-11-21T11:47:59.665Z,60.00
2022-11-21T11:51:04.308Z,54.30
2022-11-21T11:54:14.836Z,58.70
2022-11-21T11:57:17.596Z,61.90
2022-11-21T12:00:25.485Z,60.50
2022-11-21T12:03:59.395Z,58.60
2022-11-21T12:08:20.075Z,54.20
2022-11-21T12:11:11.636Z,62.30
2022-11-21T12:15:15.247Z,59.00
2022-11-21T12:18:19.774Z,63.60
2022-11-21T12:21:23.576Z,67.90
2022-11-21T12:24:25.540Z,74.90
2022-11-21T12:27:31.664Z,59.90
2022-11-21T12:30:47.943Z,60.30
2022-11-21T12:34:07.306Z,57.80
2022-11-21T12:37:47.210Z,58.80
2022-11-21T12:41:37.365Z,54.90
2022-11-21T12:45:07.707Z,56.90
2022-11-21T12:48:33.430Z,264.80
2022-11-21T12:52:08.133Z,109.10
2022-11-21T12:55:20.390Z,70.80
2022-11-21T12:58:34.220Z,49.70
2022-11-21T13:01:46.933Z,49.30
2022-11-21T13:04:50.329Z,51.10
2022-11-21T13:07:59.673Z,50.40
2022-11-21T13:11:48.677Z,48.20
2022-11-21T13:15:35.418Z,47.60
2022-11-21T13:18:45.941Z,46.10
2022-11-21T13:21:49.835Z,48.10
2022-11-21T13:24:51.415Z,49.30
2022-11-21T13:27:54.893Z,47.10
2022-11-21T13:30:57.878Z,49.40
2022-11-21T13:34:01.022Z,50.40
2022-11-21T13:37:03.947Z,46.10
2022-11-21T13:40:31.404Z,48.40
2022-11-21T13:43:34.563Z,51.50
2022-11-21T13:47:05.622Z,53.70
2022-11-21T13:50:22.699Z,58.30
2022-11-21T13:54:02.304Z,51.00
2022-11-21T13:57:25.303Z,68.50
2022-11-21T14:00:48.767Z,63.30
2022-11-21T14:04:10.488Z,61.10
2022-11-21T14:07:38.931Z,64.70
2022-11-21T14:10:42.896Z,70.30
2022-11-21T14:13:47.064Z,79.00
2022-11-21T14:16:53.926Z,81.80
2022-11-21T14:19:57.458Z,86.10
2022-11-21T14:23:14.740Z,73.90
2022-11-21T14:26:20.118Z,80.20
2022-11-21T14:29:29.541Z,68.80
2022-11-21T14:32:32.222Z,64.40
2022-11-21T14:35:34.452Z,70.60
2022-11-21T14:38:43.937Z,70.00
2022-11-21T14:41:50.237Z,74.20
2022-11-21T14:45:13.777Z,78.20
2022-11-21T14:48:15.373Z,86.40
2022-11-21T14:51:19.083Z,90.10
2022-11-21T14:54:23.307Z,165.90
2022-11-21T14:57:29.238Z,310.10
2022-11-21T15:04:01.251Z,231.40
2022-11-21T15:07:03.970Z,179.40
2022-11-21T15:10:27.285Z,117.00
2022-11-21T15:13:44.956Z,92.60
2022-11-21T15:16:54.237Z,68.50
2022-11-21T15:20:17.805Z,70.90
2022-11-21T15:23:34.079Z,70.20
2022-11-21T15:26:36.356Z,71.80
2022-11-21T15:29:38.008Z,69.10
2022-11-21T15:36:12.487Z,113.30
2022-11-21T15:39:19.789Z,100.00
2022-11-21T15:42:29.729Z,110.60
2022-11-21T15:45:31.445Z,101.10
2022-11-21T15:48:33.168Z,91.00
2022-11-21T15:54:56.426Z,79.20
2022-11-21T15:57:58.165Z,108.40
2022-11-21T16:01:00.401Z,99.40
2022-11-21T16:04:04.913Z,113.80
2022-11-21T16:07:06.782Z,102.40
2022-11-21T16:10:14.894Z,115.60
2022-11-21T16:13:21.388Z,126.70
2022-11-21T16:19:26.004Z,117.40
2022-11-21T16:22:27.688Z,107.30
2022-11-21T16:25:29.421Z,94.80
2022-11-21T16:31:32.951Z,86.10
2022-11-21T16:34:34.604Z,96.80
2022-11-21T16:40:39.511Z,112.10
2022-11-21T16:43:47.988Z,100.00
2022-11-21T16:46:51.839Z,110.60
2022-11-21T16:49:53.707Z,101.40
2022-11-21T16:56:00.967Z,169.60
2022-11-21T16:59:02.855Z,145.50
2022-11-21T17:02:04.824Z,126.30
2022-11-21T17:05:06.997Z,113.50
2022-11-21T17:08:08.694Z,102.70
2022-11-21T17:11:17.852Z,92.00
2022-11-21T17:14:19.423Z,90.00
2022-11-21T17:17:21.282Z,94.10
2022-11-21T17:20:22.929Z,94.80
2022-11-21T17:26:28.324Z,71.70
2022-11-21T17:29:30.215Z,92.40
2022-11-21T17:32:31.936Z,86.40
2022-11-21T17:38:35.619Z,80.20
2022-11-21T17:44:39.893Z,90.10
2022-11-21T17:47:42.293Z,79.00
2022-11-21T17:50:43.918Z,81.70
2022-11-21T17:53:47.295Z,88.90
2022-11-21T17:56:53.932Z,97.70
2022-11-21T17:59:58.732Z,113.80
2022-11-21T18:03:00.688Z,130.50
2022-11-21T18:06:05.037Z,88.70
2022-11-21T18:09:07.564Z,65.70
2022-11-21T18:12:09.462Z,66.60
2022-11-21T18:15:11.200Z,60.90
2022-11-21T18:24:17.814Z,67.70
2022-11-21T18:27:19.614Z,62.30
2022-11-21T18:30:21.345Z,54.90
2022-11-21T18:36:26.143Z,60.60
2022-11-21T18:39:28.442Z,91.80
2022-11-21T18:42:32.334Z,82.60
2022-11-21T18:45:33.941Z,76.90
2022-11-21T18:49:00.987Z,85.50
2022-11-21T18:51:57.903Z,86.30
2022-11-21T18:54:59.666Z,122.80
2022-11-21T19:01:07.692Z,98.40
2022-11-21T19:04:09.804Z,134.90
2022-11-21T19:07:11.705Z,111.90
2022-11-21T19:10:41.541Z,109.90
2022-11-21T19:13:35.248Z,109.30
2022-11-21T19:19:38.622Z,88.50
2022-11-21T19:22:40.510Z,81.10
2022-11-21T19:25:42.102Z,81.00
2022-11-21T19:28:44.821Z,74.40
2022-11-21T19:31:46.661Z,87.00
2022-11-21T19:34:48.710Z,89.90
2022-11-21T19:37:50.582Z,88.90
2022-11-21T19:41:10.875Z,105.10
2022-11-21T19:44:12.753Z,89.70
2022-11-21T19:50:15.953Z,98.90
2022-11-21T19:56:24.715Z,95.60
2022-11-21T19:59:27.600Z,104.60
2022-11-21T20:02:29.664Z,102.90
2022-11-21T20:08:33.700Z,102.70
2022-11-21T20:11:36.213Z,100.10
2022-11-21T20:14:37.993Z,101.20
2022-11-21T20:17:39.869Z,93.80
2022-11-21T20:20:41.681Z,97.10
2022-11-21T20:23:43.679Z,108.20
2022-11-21T20:26:45.798Z,110.50
2022-11-21T20:29:47.516Z,111.10
2022-11-21T20:32:49.197Z,106.40
2022-11-21T20:35:50.830Z,107.70
2022-11-21T20:38:57.895Z,124.60
2022-11-21T20:42:00.194Z,131.80
2022-11-21T20:48:23.766Z,224.10
2022-11-21T20:54:47.088Z,155.60
2022-11-21T21:00:50.240Z,185.00
2022-11-21T21:03:51.945Z,181.30
2022-11-21T21:09:56.960Z,162.60
2022-11-21T21:12:58.724Z,142.60
2022-11-21T21:19:06.563Z,134.40
2022-11-21T21:22:09.268Z,115.40
2022-11-21T21:25:11.022Z,110.20
2022-11-21T21:31:17.085Z,105.70
2022-11-21T21:34:20.441Z,111.90
2022-11-21T21:37:22.151Z,108.20
2022-11-21T21:40:23.809Z,120.20
2022-11-21T21:43:25.461Z,122.20
2022-11-21T21:46:28.072Z,128.00
2022-11-21T21:49:29.794Z,147.80
2022-11-21T21:55:33.497Z,129.10
2022-11-21T22:01:42.799Z,96.80
2022-11-21T22:04:49.140Z,94.30
2022-11-21T22:07:53.544Z,83.20
2022-11-21T22:14:06.578Z,86.70
2022-11-21T22:17:08.644Z,90.30
2022-11-21T22:20:10.765Z,79.00
2022-11-21T22:23:12.461Z,84.80
2022-11-21T22:29:16.169Z,79.20
2022-11-21T22:32:19.805Z,82.10
2022-11-21T22:35:21.840Z,76.10
2022-11-21T22:38:23.469Z,75.60
2022-11-21T22:41:27.317Z,81.10
2022-11-21T22:44:29.290Z,72.90
2022-11-21T22:47:31.122Z,69.10
2022-11-21T22:50:32.944Z,66.30
2022-11-21T22:56:42.000Z,73.00
2022-11-21T23:02:45.356Z,71.60
2022-11-21T23:05:46.970Z,67.30
2022-11-21T23:08:49.391Z,73.80
2022-11-21T23:11:51.052Z,70.10
2022-11-21T23:17:54.737Z,70.10
2022-11-21T23:20:56.622Z,68.90
2022-11-21T23:23:58.481Z,69.50
2022-11-21T23:27:00.471Z,71.20
2022-11-21T23:30:02.193Z,67.40
2022-11-21T23:36:06.265Z,63.40
2022-11-21T23:39:07.951Z,69.20
2022-11-21T23:45:11.125Z,63.70
2022-11-21T23:48:12.834Z,67.40
2022-11-21T23:51:14.462Z,79.40
2022-11-21T23:54:17.166Z,62.70
2022-11-21T23:57:19.007Z,66.50
